Time;durP1;ratioP1;P1;durP2;ratioP2;P2;SDS_P1;SDS_P2;PMS_P1;PMS_P2;Temp;Humidity;BMP_temperature;BMP_pressure;BME280_temperature;BME280_humidity;BME280_pressure;Samples;Min_cycle;Max_cycle;Signal;HPM_P1;HPM_P2
2022/09/04 00:00:11;;;;;;;;;;;17.50;86.30;;;;;;5066335;28;20003;-69
2022/09/04 00:02:56;;;;;;;;;;;17.40;86.50;;;;;;5046935;28;20383;-69
2022/09/04 00:05:31;;;;;;;;;;;17.50;86.50;;;;;;5049265;28;19920;-69
2022/09/04 00:07:56;;;;;;;;;;;17.40;86.30;;;;;;5066164;28;19920;-69
2022/09/04 00:10:30;;;;;;;;;;;17.40;86.20;;;;;;5073362;28;19920;-69
2022/09/04 00:13:01;;;;;;;;;;;17.40;86.20;;;;;;5069260;28;19920;-69
2022/09/04 00:15:33;;;;;;;;;;;17.40;86.30;;;;;;5061940;28;20400;-69
2022/09/04 00:18:11;;;;;;;;;;;17.40;86.20;;;;;;5053700;28;19920;-69
2022/09/04 00:20:44;;;;;;;;;;;17.40;86.20;;;;;;5059349;28;20368;-69
2022/09/04 00:23:17;;;;;;;;;;;17.40;86.40;;;;;;5085938;28;19974;-70
2022/09/04 00:25:51;;;;;;;;;;;17.40;86.30;;;;;;5044255;28;19955;-69
2022/09/04 00:28:16;;;;;;;;;;;17.30;86.20;;;;;;5051722;28;19916;-68
2022/09/04 00:30:49;;;;;;;;;;;17.30;86.50;;;;;;5089103;28;19920;-69
2022/09/04 00:33:22;;;;;;;;;;;17.30;86.10;;;;;;5081034;28;19927;-69
2022/09/04 00:35:58;;;;;;;;;;;17.30;86.10;;;;;;5063733;28;19928;-69
2022/09/04 00:38:39;;;;;;;;;;;17.30;86.30;;;;;;5088857;28;19928;-69
2022/09/04 00:41:26;;;;;;;;;;;17.30;86.40;;;;;;5059778;28;19931;-69
2022/09/04 00:43:59;;;;;;;;;;;17.30;86.10;;;;;;5059814;28;19921;-69
2022/09/04 00:46:44;;;;;;;;;;;17.20;86.20;;;;;;5068126;28;20352;-69
2022/09/04 00:49:10;;;;;;;;;;;17.20;86.50;;;;;;5047197;28;20017;-69
2022/09/04 00:51:58;;;;;;;;;;;17.20;86.60;;;;;;5041769;28;19928;-69
2022/09/04 00:54:33;;;;;;;;;;;17.10;86.80;;;;;;5071668;28;19924;-69
2022/09/04 00:57:12;;;;;;;;;;;17.10;87.10;;;;;;5048791;28;20277;-70
2022/09/04 00:59:56;;;;;;;;;;;17.10;87.10;;;;;;5045289;28;20330;-69
2022/09/04 01:02:22;;;;;;;;;;;17.10;87.10;;;;;;5068469;28;19924;-69
2022/09/04 01:04:59;;;;;;;;;;;17.00;87.10;;;;;;5068603;28;19916;-69
2022/09/04 01:07:43;;;;;;;;;;;16.90;87.10;;;;;;5055295;28;19931;-69
2022/09/04 01:10:23;;;;;;;;;;;17.00;87.40;;;;;;5050834;28;19916;-68
2022/09/04 01:12:55;;;;;;;;;;;17.00;87.40;;;;;;5053959;28;19964;-69
2022/09/04 01:15:30;;;;;;;;;;;16.90;87.60;;;;;;5045889;28;19921;-69
2022/09/04 01:18:06;;;;;;;;;;;16.90;87.70;;;;;;5043719;28;20009;-69
2022/09/04 01:20:52;;;;;;;;;;;16.80;87.80;;;;;;5033324;28;19927;-69
2022/09/04 01:23:17;;;;;;;;;;;16.80;87.80;;;;;;5024407;28;20048;-70
2022/09/04 01:26:01;;;;;;;;;;;16.70;88.10;;;;;;5040658;28;19979;-69
2022/09/04 01:28:36;;;;;;;;;;;16.70;88.20;;;;;;5048242;28;19921;-69
2022/09/04 01:31:15;;;;;;;;;;;16.60;88.20;;;;;;5026644;28;20452;-69
2022/09/04 01:33:54;;;;;;;;;;;16.60;88.50;;;;;;5060138;28;20419;-69
2022/09/04 01:36:28;;;;;;;;;;;16.60;88.70;;;;;;5019926;28;19921;-69
2022/09/04 01:39:01;;;;;;;;;;;16.60;88.50;;;;;;5041980;28;20334;-69
2022/09/04 01:41:27;;;;;;;;;;;16.60;88.50;;;;;;5062112;28;19960;-68
2022/09/04 01:43:52;;;;;;;;;;;16.50;88.70;;;;;;5065484;28;19916;-69
2022/09/04 01:46:27;;;;;;;;;;;16.60;88.90;;;;;;5055736;28;19928;-69
2022/09/04 01:48:52;;;;;;;;;;;16.40;89.30;;;;;;5048360;28;19916;-69
2022/09/04 01:51:36;;;;;;;;;;;16.40;89.00;;;;;;5044266;28;20292;-69
2022/09/04 01:54:14;;;;;;;;;;;16.40;89.20;;;;;;5052792;28;19969;-69
2022/09/04 01:57:12;;;;;;;;;;;16.40;89.00;;;;;;5036709;28;19960;-69
2022/09/04 01:59:46;;;;;;;;;;;16.40;89.20;;;;;;5016575;28;19921;-69
2022/09/04 02:02:26;;;;;;;;;;;16.40;89.30;;;;;;5021059;28;19928;-69
2022/09/04 02:05:00;;;;;;;;;;;16.30;89.50;;;;;;5040608;28;19920;-69
2022/09/04 02:07:34;;;;;;;;;;;16.30;89.90;;;;;;5065545;28;19986;-68
2022/09/04 02:10:08;;;;;;;;;;;16.20;89.90;;;;;;5043249;28;19924;-69
2022/09/04 02:12:50;;;;;;;;;;;16.20;89.70;;;;;;5054576;28;19920;-69
2022/09/04 02:15:35;;;;;;;;;;;16.20;89.90;;;;;;5029945;28;19921;-68
2022/09/04 02:18:10;;;;;;;;;;;16.20;90.00;;;;;;5049052;28;19920;-69
2022/09/04 02:20:37;;;;;;;;;;;16.20;90.00;;;;;;5056902;28;19921;-69
2022/09/04 02:23:10;;;;;;;;;;;16.20;90.00;;;;;;5036054;28;19921;-69
2022/09/04 02:25:49;;;;;;;;;;;16.10;90.10;;;;;;5056643;28;20372;-69
2022/09/04 02:28:24;;;;;;;;;;;16.10;90.10;;;;;;5054245;28;20383;-70
2022/09/04 02:30:55;;;;;;;;;;;16.10;90.10;;;;;;5039004;28;19931;-69
2022/09/04 02:33:29;;;;;;;;;;;16.00;90.20;;;;;;5037501;28;19924;-70
2022/09/04 02:36:01;;;;;;;;;;;16.00;90.20;;;;;;5051313;28;20019;-69
2022/09/04 02:38:34;;;;;;;;;;;16.00;90.30;;;;;;5038847;28;19921;-69
2022/09/04 02:41:06;;;;;;;;;;;16.00;90.30;;;;;;5054538;28;19923;-69
2022/09/04 02:43:38;;;;;;;;;;;16.00;90.30;;;;;;5037579;28;19921;-69
2022/09/04 02:46:16;;;;;;;;;;;15.90;90.30;;;;;;5054532;28;20272;-69
2022/09/04 02:49:01;;;;;;;;;;;15.90;90.50;;;;;;5055200;28;20284;-69
2022/09/04 02:51:29;;;;;;;;;;;15.90;90.60;;;;;;5036512;28;19921;-69
2022/09/04 02:53:58;;;;;;;;;;;15.80;90.70;;;;;;5050798;28;20295;-69
2022/09/04 02:56:43;;;;;;;;;;;15.80;90.90;;;;;;5054480;28;19928;-69
2022/09/04 02:59:14;;;;;;;;;;;15.70;91.00;;;;;;5060980;28;19920;-69
2022/09/04 03:01:43;;;;;;;;;;;15.70;90.70;;;;;;5045456;28;19928;-69
2022/09/04 03:04:14;;;;;;;;;;;15.70;91.00;;;;;;5054604;28;19986;-69
2022/09/04 03:07:00;;;;;;;;;;;15.70;90.90;;;;;;5053837;28;19968;-69
2022/09/04 03:09:35;;;;;;;;;;;15.70;91.00;;;;;;5046466;28;20272;-69
2022/09/04 03:12:09;;;;;;;;;;;15.70;91.30;;;;;;5040437;28;20296;-69
2022/09/04 03:14:43;;;;;;;;;;;15.70;91.10;;;;;;5071437;28;19928;-69
2022/09/04 03:17:20;;;;;;;;;;;15.60;91.30;;;;;;5039708;28;19921;-69
2022/09/04 03:19:48;;;;;;;;;;;15.60;91.30;;;;;;5048501;28;19921;-69
2022/09/04 03:22:20;;;;;;;;;;;15.60;91.30;;;;;;5058708;28;19965;-69
2022/09/04 03:25:05;;;;;;;;;;;15.60;91.40;;;;;;5055582;28;19928;-68
2022/09/04 03:27:31;;;;;;;;;;;15.60;91.40;;;;;;5064187;28;19928;-70
2022/09/04 03:30:07;;;;;;;;;;;15.60;91.30;;;;;;5042581;28;20292;-68
2022/09/04 03:32:47;;;;;;;;;;;15.60;91.40;;;;;;5052988;28;19966;-68
2022/09/04 03:35:36;;;;;;;;;;;15.50;91.50;;;;;;5042751;28;19920;-68
2022/09/04 03:38:02;;;;;;;;;;;15.50;91.60;;;;;;5048615;28;19928;-68
2022/09/04 03:40:43;;;;;;;;;;;15.50;91.80;;;;;;5050686;28;19920;-68
2022/09/04 03:43:14;;;;;;;;;;;15.40;91.80;;;;;;5043094;28;20410;-68
2022/09/04 03:45:57;;;;;;;;;;;15.40;91.70;;;;;;5062655;28;20373;-68
2022/09/04 03:48:33;;;;;;;;;;;15.40;91.80;;;;;;5052006;28;19920;-68
2022/09/04 03:50:58;;;;;;;;;;;15.40;91.80;;;;;;5041871;28;20370;-68
2022/09/04 03:53:31;;;;;;;;;;;15.30;91.90;;;;;;5064823;28;19921;-68
2022/09/04 03:56:11;;;;;;;;;;;15.30;91.80;;;;;;5054354;28;19921;-68
2022/09/04 03:58:55;;;;;;;;;;;15.30;92.10;;;;;;5070103;28;19920;-68
2022/09/04 04:01:21;;;;;;;;;;;15.30;91.90;;;;;;5061941;28;19928;-68
2022/09/04 04:03:46;;;;;;;;;;;15.30;92.00;;;;;;5061448;28;19921;-68
2022/09/04 04:06:17;;;;;;;;;;;15.20;92.10;;;;;;5053835;28;20015;-68
2022/09/04 04:08:58;;;;;;;;;;;15.20;92.00;;;;;;5035766;28;20742;-68
2022/09/04 04:11:29;;;;;;;;;;;15.20;92.20;;;;;;5055095;28;20379;-68
2022/09/04 04:14:06;;;;;;;;;;;15.20;92.50;;;;;;5053923;28;20128;-69
2022/09/04 04:16:40;;;;;;;;;;;15.20;92.40;;;;;;5047234;28;19967;-67
2022/09/04 04:19:11;;;;;;;;;;;15.20;92.70;;;;;;5015497;28;20340;-67
2022/09/04 04:21:54;;;;;;;;;;;15.10;92.80;;;;;;5016238;28;19927;-68
2022/09/04 04:24:27;;;;;;;;;;;15.10;92.50;;;;;;5014968;28;19921;-68
2022/09/04 04:26:53;;;;;;;;;;;15.10;92.90;;;;;;5035118;28;20016;-67
2022/09/04 04:29:39;;;;;;;;;;;15.10;92.90;;;;;;5050573;28;20485;-68
2022/09/04 04:32:12;;;;;;;;;;;15.10;92.60;;;;;;5026720;28;19925;-68
2022/09/04 04:34:43;;;;;;;;;;;15.10;93.00;;;;;;5029916;28;19925;-69
2022/09/04 04:37:17;;;;;;;;;;;15.00;93.00;;;;;;5024449;28;19928;-68
2022/09/04 04:40:06;;;;;;;;;;;15.00;92.90;;;;;;5037860;28;20270;-68
2022/09/04 04:42:55;;;;;;;;;;;15.10;92.90;;;;;;5038212;28;19920;-68
2022/09/04 04:48:20;;;;;;;;;;;15.10;93.20;;;;;;5030978;28;19975;-68
2022/09/04 04:50:49;;;;;;;;;;;15.00;93.10;;;;;;5039568;28;19967;-68
2022/09/04 04:53:33;;;;;;;;;;;15.00;93.20;;;;;;5044252;28;19920;-68
2022/09/04 04:56:04;;;;;;;;;;;15.00;93.10;;;;;;5028100;28;19959;-68
2022/09/04 04:58:42;;;;;;;;;;;15.00;93.40;;;;;;5019830;28;20280;-68
2022/09/04 05:01:10;;;;;;;;;;;15.00;93.30;;;;;;5042518;28;19971;-69
2022/09/04 05:03:58;;;;;;;;;;;15.00;93.30;;;;;;5029001;28;20010;-68
2022/09/04 05:06:38;;;;;;;;;;;15.00;93.50;;;;;;5018479;28;19999;-68
2022/09/04 05:09:08;;;;;;;;;;;15.00;93.30;;;;;;5043020;28;19997;-68
2022/09/04 05:11:42;;;;;;;;;;;15.00;93.40;;;;;;5045028;28;19920;-68
2022/09/04 05:14:17;;;;;;;;;;;15.00;93.60;;;;;;5035663;28;20020;-69
2022/09/04 05:16:52;;;;;;;;;;;15.00;93.80;;;;;;5045865;28;19921;-68
2022/09/04 05:19:23;;;;;;;;;;;15.10;93.80;;;;;;5025690;28;19924;-68
2022/09/04 05:21:54;;;;;;;;;;;15.10;93.70;;;;;;5019179;28;20388;-68
2022/09/04 05:24:43;;;;;;;;;;;15.10;93.50;;;;;;5036359;28;19928;-68
2022/09/04 05:27:31;;;;;;;;;;;15.10;93.40;;;;;;5018613;28;20388;-68
2022/09/04 05:29:57;;;;;;;;;;;15.20;93.90;;;;;;5031702;28;20426;-68
2022/09/04 05:32:27;;;;;;;;;;;15.20;93.90;;;;;;5025735;28;19921;-68
2022/09/04 05:35:12;;;;;;;;;;;15.20;93.90;;;;;;5033351;28;19917;-68
2022/09/04 05:37:49;;;;;;;;;;;15.20;94.00;;;;;;5018927;28;20403;-68
2022/09/04 05:40:18;;;;;;;;;;;15.20;94.40;;;;;;5019509;28;19968;-68
2022/09/04 05:43:00;;;;;;;;;;;15.30;93.70;;;;;;5019068;28;19927;-68
2022/09/04 05:45:28;;;;;;;;;;;15.30;94.10;;;;;;5036827;28;19948;-69
2022/09/04 05:48:12;;;;;;;;;;;15.40;94.20;;;;;;5017461;28;20278;-68
2022/09/04 05:50:38;;;;;;;;;;;15.40;94.10;;;;;;5036473;28;20292;-69
2022/09/04 05:53:12;;;;;;;;;;;15.50;94.20;;;;;;5036155;28;19944;-69
2022/09/04 05:55:55;;;;;;;;;;;15.50;93.90;;;;;;5025570;28;20372;-68
2022/09/04 05:58:27;;;;;;;;;;;15.50;93.90;;;;;;5037510;28;19920;-68
2022/09/04 06:00:58;;;;;;;;;;;15.50;93.70;;;;;;5037733;28;20292;-69
2022/09/04 06:03:39;;;;;;;;;;;15.50;93.80;;;;;;5038330;28;19932;-68
2022/09/04 06:06:12;;;;;;;;;;;15.60;94.00;;;;;;5055850;28;19920;-69
2022/09/04 06:08:56;;;;;;;;;;;15.60;94.10;;;;;;5037321;28;19966;-69
2022/09/04 06:11:41;;;;;;;;;;;15.60;93.90;;;;;;5036613;28;19991;-68
2022/09/04 06:14:10;;;;;;;;;;;15.70;94.10;;;;;;5038439;28;19921;-69
2022/09/04 06:16:52;;;;;;;;;;;15.70;94.00;;;;;;5054924;28;19968;-68
2022/09/04 06:19:27;;;;;;;;;;;15.80;94.10;;;;;;5055846;28;19921;-68
2022/09/04 06:22:01;;;;;;;;;;;15.90;94.10;;;;;;5037506;28;20340;-69
2022/09/04 06:24:45;;;;;;;;;;;15.90;93.70;;;;;;5055807;28;20265;-68
2022/09/04 06:27:22;;;;;;;;;;;16.00;94.00;;;;;;5017506;28;19967;-69
2022/09/04 06:29:52;;;;;;;;;;;16.10;93.70;;;;;;5035364;28;19921;-70
2022/09/04 06:32:23;;;;;;;;;;;16.20;93.70;;;;;;5017759;28;19932;-68
2022/09/04 06:35:05;;;;;;;;;;;16.30;93.60;;;;;;5035518;28;20411;-71
2022/09/04 06:37:42;;;;;;;;;;;16.30;93.50;;;;;;5017398;28;19927;-70
2022/09/04 06:40:26;;;;;;;;;;;16.40;93.80;;;;;;5018792;28;20289;-69
2022/09/04 06:42:58;;;;;;;;;;;16.50;93.50;;;;;;5035119;28;19979;-69
2022/09/04 06:46:02;;;;;;;;;;;16.60;93.60;;;;;;5016778;28;20003;-70
2022/09/04 06:48:46;;;;;;;;;;;16.70;93.50;;;;;;4939323;29;19929;-70
2022/09/04 06:51:16;;;;;;;;;;;16.80;93.60;;;;;;4956531;28;19922;-70
2022/09/04 06:53:46;;;;;;;;;;;16.90;93.40;;;;;;5023787;28;19921;-70
2022/09/04 06:56:24;;;;;;;;;;;16.90;93.50;;;;;;5053138;28;19920;-70
2022/09/04 06:58:52;;;;;;;;;;;17.10;93.30;;;;;;5054640;28;19927;-69
2022/09/04 07:01:21;;;;;;;;;;;17.20;93.30;;;;;;5036564;28;19932;-71
2022/09/04 07:03:46;;;;;;;;;;;17.30;93.20;;;;;;5029149;28;20070;-70
2022/09/04 07:06:12;;;;;;;;;;;17.30;93.00;;;;;;5043424;28;20389;-70
2022/09/04 07:08:56;;;;;;;;;;;17.40;93.30;;;;;;5044664;28;19956;-72
2022/09/04 07:11:28;;;;;;;;;;;17.50;93.00;;;;;;5023272;28;19964;-71
2022/09/04 07:13:53;;;;;;;;;;;17.70;92.80;;;;;;5036765;28;19921;-71
2022/09/04 07:16:33;;;;;;;;;;;17.80;92.80;;;;;;5040615;28;19927;-69
2022/09/04 07:19:17;;;;;;;;;;;17.90;92.70;;;;;;5074208;28;19920;-70
2022/09/04 07:21:43;;;;;;;;;;;18.30;92.30;;;;;;5046026;28;19927;-70
2022/09/04 07:24:28;;;;;;;;;;;19.00;91.70;;;;;;5059555;28;19920;-70
2022/09/04 07:27:00;;;;;;;;;;;19.60;91.10;;;;;;5053206;28;20372;-71
2022/09/04 07:29:44;;;;;;;;;;;20.20;90.50;;;;;;5074851;28;19924;-69
2022/09/04 07:32:10;;;;;;;;;;;20.70;89.40;;;;;;5056611;28;19935;-69
2022/09/04 07:34:42;;;;;;;;;;;21.40;88.40;;;;;;5056148;28;19924;-71
2022/09/04 07:37:12;;;;;;;;;;;21.70;85.80;;;;;;5056266;28;19978;-72
2022/09/04 07:39:38;;;;;;;;;;;22.10;85.90;;;;;;5073776;28;19920;-69
2022/09/04 07:42:08;;;;;;;;;;;22.70;84.40;;;;;;5066560;28;19920;-67
2022/09/04 07:44:57;;;;;;;;;;;23.20;82.70;;;;;;5054469;28;19944;-69
2022/09/04 07:47:26;;;;;;;;;;;23.70;82.30;;;;;;5053355;28;19920;-70
2022/09/04 07:49:57;;;;;;;;;;;24.50;80.10;;;;;;5054178;28;19927;-69
2022/09/04 07:52:42;;;;;;;;;;;25.20;80.10;;;;;;5036713;28;20339;-66
2022/09/04 07:55:11;;;;;;;;;;;25.60;80.10;;;;;;5012057;28;19921;-66
2022/09/04 07:57:56;;;;;;;;;;;25.90;78.40;;;;;;5036766;28;19966;-68
2022/09/04 08:00:21;;;;;;;;;;;26.20;77.60;;;;;;5036379;28;19943;-68
2022/09/04 08:02:50;;;;;;;;;;;26.40;76.90;;;;;;5053549;28;20368;-68
2022/09/04 08:05:21;;;;;;;;;;;26.50;76.80;;;;;;5036046;28;19924;-72
2022/09/04 08:07:47;;;;;;;;;;;26.60;76.10;;;;;;5053286;28;19920;-70
2022/09/04 08:10:31;;;;;;;;;;;27.00;76.20;;;;;;5035947;28;19971;-70
2022/09/04 08:13:08;;;;;;;;;;;27.20;75.70;;;;;;5036067;28;20379;-71
2022/09/04 08:15:37;;;;;;;;;;;27.50;75.50;;;;;;5053155;28;20667;-72
2022/09/04 08:18:05;;;;;;;;;;;27.60;75.30;;;;;;5053424;28;20379;-69
2022/09/04 08:20:31;;;;;;;;;;;27.80;75.50;;;;;;5055204;28;19920;-68
2022/09/04 08:23:11;;;;;;;;;;;27.70;73.70;;;;;;5054717;28;19920;-69
2022/09/04 08:25:56;;;;;;;;;;;27.90;75.10;;;;;;5055587;28;20424;-68
2022/09/04 08:28:43;;;;;;;;;;;28.00;74.90;;;;;;5055006;28;19920;-69
2022/09/04 08:31:19;;;;;;;;;;;28.00;74.80;;;;;;5050396;28;20272;-70
2022/09/04 08:33:50;;;;;;;;;;;28.50;74.90;;;;;;5053889;28;19932;-70
2022/09/04 08:36:16;;;;;;;;;;;28.70;75.00;;;;;;5052694;28;19939;-70
2022/09/04 08:38:55;;;;;;;;;;;28.80;74.60;;;;;;5054351;28;19921;-70
2022/09/04 08:41:34;;;;;;;;;;;29.10;74.80;;;;;;5054979;28;19962;-70
2022/09/04 08:44:00;;;;;;;;;;;29.50;73.50;;;;;;5073019;28;19920;-70
2022/09/04 08:46:47;;;;;;;;;;;29.50;74.00;;;;;;5055651;28;20296;-70
2022/09/04 08:49:28;;;;;;;;;;;29.60;72.60;;;;;;5052754;28;20007;-70
2022/09/04 08:52:09;;;;;;;;;;;29.20;73.30;;;;;;5050431;28;20396;-71
2022/09/04 08:54:57;;;;;;;;;;;28.80;73.50;;;;;;5071902;28;19921;-71
2022/09/04 08:57:29;;;;;;;;;;;28.50;74.50;;;;;;5072054;28;20014;-70
2022/09/04 09:00:07;;;;;;;;;;;28.40;75.80;;;;;;5072471;28;19920;-70
2022/09/04 09:02:51;;;;;;;;;;;28.80;75.50;;;;;;5054609;28;20297;-70
2022/09/04 09:05:36;;;;;;;;;;;29.00;75.30;;;;;;5051997;28;20266;-70
2022/09/04 09:08:20;;;;;;;;;;;29.00;74.40;;;;;;5059750;28;20003;-69
2022/09/04 09:11:02;;;;;;;;;;;29.00;75.10;;;;;;5072614;28;19929;-71
2022/09/04 09:13:27;;;;;;;;;;;28.70;75.00;;;;;;5071549;28;19916;-70
2022/09/04 09:16:05;;;;;;;;;;;28.40;75.20;;;;;;5062698;28;19920;-71
2022/09/04 09:18:36;;;;;;;;;;;28.50;75.90;;;;;;5075093;28;19920;-70
2022/09/04 09:21:06;;;;;;;;;;;28.60;76.40;;;;;;5081438;28;19920;-71
2022/09/04 09:23:50;;;;;;;;;;;28.80;75.50;;;;;;5073118;28;19920;-71
2022/09/04 09:26:27;;;;;;;;;;;28.80;75.80;;;;;;5054099;28;20285;-71
2022/09/04 09:28:53;;;;;;;;;;;28.90;75.50;;;;;;5072708;28;19928;-71
2022/09/04 09:31:28;;;;;;;;;;;29.00;75.60;;;;;;5053989;28;19920;-72
2022/09/04 09:33:59;;;;;;;;;;;29.30;75.00;;;;;;5075089;28;20283;-71
2022/09/04 09:36:34;;;;;;;;;;;29.30;75.40;;;;;;5080120;28;19974;-71
2022/09/04 09:38:59;;;;;;;;;;;29.80;75.30;;;;;;5033659;28;19921;-70
2022/09/04 09:41:40;;;;;;;;;;;29.80;75.10;;;;;;5041220;28;20317;-70
2022/09/04 09:44:21;;;;;;;;;;;30.00;74.70;;;;;;5072120;28;19928;-70
2022/09/04 09:46:52;;;;;;;;;;;29.60;75.90;;;;;;5072112;28;19987;-71
2022/09/04 09:49:37;;;;;;;;;;;29.40;74.00;;;;;;5054600;28;19928;-72
2022/09/04 09:52:02;;;;;;;;;;;28.90;74.80;;;;;;5072252;28;19927;-72
2022/09/04 09:54:46;;;;;;;;;;;29.30;75.40;;;;;;5054109;28;20292;-72
2022/09/04 09:57:15;;;;;;;;;;;29.50;74.00;;;;;;5072271;28;19963;-70
2022/09/04 09:59:43;;;;;;;;;;;29.60;74.00;;;;;;5055431;28;19928;-69
2022/09/04 10:02:22;;;;;;;;;;;29.50;75.00;;;;;;5071371;28;20360;-71
2022/09/04 10:04:54;;;;;;;;;;;29.40;75.00;;;;;;5078028;28;19920;-71
2022/09/04 10:07:38;;;;;;;;;;;29.40;75.30;;;;;;5073780;28;20367;-70
2022/09/04 10:10:15;;;;;;;;;;;29.50;76.00;;;;;;5074283;28;20371;-70
2022/09/04 10:12:59;;;;;;;;;;;29.50;75.50;;;;;;5092807;28;19943;-70
2022/09/04 10:15:51;;;;;;;;;;;29.80;74.20;;;;;;5071715;28;19979;-70
2022/09/04 10:18:24;;;;;;;;;;;30.20;74.70;;;;;;5072442;28;19920;-70
2022/09/04 10:21:11;;;;;;;;;;;30.40;74.20;;;;;;5055086;28;19969;-71
2022/09/04 10:24:04;;;;;;;;;;;30.60;74.20;;;;;;5075864;28;19973;-71
2022/09/04 10:26:47;;;;;;;;;;;30.30;73.20;;;;;;5051805;28;20005;-70
2022/09/04 10:29:19;;;;;;;;;;;30.20;73.60;;;;;;5057191;28;20292;-71
2022/09/04 10:31:50;;;;;;;;;;;29.60;74.20;;;;;;5075849;28;19920;-71
2022/09/04 10:34:18;;;;;;;;;;;29.90;74.80;;;;;;5075568;28;19924;-71
2022/09/04 10:36:58;;;;;;;;;;;29.80;74.70;;;;;;5095164;28;19927;-70
2022/09/04 10:42:30;;;;;;;;;;;30.10;74.30;;;;;;5076907;28;19964;-71
2022/09/04 10:45:05;;;;;;;;;;;30.10;74.10;;;;;;5077100;28;20334;-72
2022/09/04 10:47:51;;;;;;;;;;;30.10;74.90;;;;;;5095371;28;19920;-70
2022/09/04 10:50:19;;;;;;;;;;;30.40;73.90;;;;;;5092060;28;19924;-71
2022/09/04 10:53:04;;;;;;;;;;;30.40;73.70;;;;;;5075616;28;19920;-71
2022/09/04 10:55:31;;;;;;;;;;;30.30;74.10;;;;;;5076496;28;20018;-71
2022/09/04 10:58:09;;;;;;;;;;;30.40;73.60;;;;;;5075091;28;20014;-71
2022/09/04 11:00:49;;;;;;;;;;;30.60;74.00;;;;;;5077087;28;19920;-71
2022/09/04 11:03:21;;;;;;;;;;;30.60;74.50;;;;;;5076549;28;19920;-71
2022/09/04 11:05:59;;;;;;;;;;;30.40;73.60;;;;;;5063497;28;19924;-71
2022/09/04 11:08:43;;;;;;;;;;;29.90;73.90;;;;;;5057487;28;19927;-71
2022/09/04 11:11:27;;;;;;;;;;;29.90;74.50;;;;;;5056362;28;19966;-71
2022/09/04 11:14:05;;;;;;;;;;;30.00;74.10;;;;;;5074946;28;20368;-71
2022/09/04 11:16:37;;;;;;;;;;;30.30;75.20;;;;;;5057015;28;19920;-71
2022/09/04 11:19:21;;;;;;;;;;;30.50;74.90;;;;;;5074028;28;19920;-71
2022/09/04 11:22:07;;;;;;;;;;;30.70;74.50;;;;;;5075804;28;19920;-71
2022/09/04 11:24:34;;;;;;;;;;;30.80;73.90;;;;;;5074162;28;19920;-71
2022/09/04 11:27:02;;;;;;;;;;;30.70;73.10;;;;;;5056842;28;19920;-71
2022/09/04 11:29:39;;;;;;;;;;;30.80;73.20;;;;;;5074679;28;20424;-71
2022/09/04 11:32:30;;;;;;;;;;;30.50;74.00;;;;;;5073743;28;19920;-71
2022/09/04 11:35:08;;;;;;;;;;;30.20;74.60;;;;;;5075489;28;19963;-71
2022/09/04 11:37:57;;;;;;;;;;;30.60;74.10;;;;;;5056487;28;20062;-71
2022/09/04 11:40:41;;;;;;;;;;;30.30;73.70;;;;;;5056189;28;20011;-71
2022/09/04 11:43:18;;;;;;;;;;;29.90;75.40;;;;;;5056306;28;19921;-71
2022/09/04 11:45:47;;;;;;;;;;;30.20;74.40;;;;;;5055798;28;19920;-71
2022/09/04 11:48:12;;;;;;;;;;;30.00;75.10;;;;;;5056310;28;19921;-71
2022/09/04 11:50:49;;;;;;;;;;;30.00;74.70;;;;;;5054524;28;20319;-71
2022/09/04 11:53:34;;;;;;;;;;;30.20;75.40;;;;;;5055744;28;19964;-71
2022/09/04 11:56:09;;;;;;;;;;;30.40;75.20;;;;;;5056114;28;20390;-71
2022/09/04 11:58:49;;;;;;;;;;;30.40;75.10;;;;;;5056300;28;20372;-71
2022/09/04 12:01:15;;;;;;;;;;;30.40;74.90;;;;;;5055539;28;19962;-71
2022/09/04 12:03:55;;;;;;;;;;;30.20;74.60;;;;;;5056433;28;19928;-71
2022/09/04 12:06:26;;;;;;;;;;;30.10;74.50;;;;;;5069775;28;20012;-70
2022/09/04 12:09:13;;;;;;;;;;;30.00;74.10;;;;;;5092536;28;19926;-71
2022/09/04 12:11:55;;;;;;;;;;;29.90;75.10;;;;;;5076115;28;19927;-71
2022/09/04 12:14:27;;;;;;;;;;;30.20;75.50;;;;;;5093641;28;19978;-71
2022/09/04 12:17:15;;;;;;;;;;;30.20;74.40;;;;;;5068698;28;20390;-71
2022/09/04 12:20:03;;;;;;;;;;;30.10;74.70;;;;;;5056432;28;19920;-70
2022/09/04 12:22:35;;;;;;;;;;;30.10;75.00;;;;;;5043804;28;19924;-70
2022/09/04 12:25:19;;;;;;;;;;;30.00;75.00;;;;;;5035542;28;19920;-70
2022/09/04 12:27:47;;;;;;;;;;;29.90;75.30;;;;;;5053231;28;19916;-69
2022/09/04 12:30:24;;;;;;;;;;;30.00;74.90;;;;;;5053197;28;19920;-69
2022/09/04 12:32:52;;;;;;;;;;;30.00;75.30;;;;;;5034826;28;19916;-69
2022/09/04 12:35:28;;;;;;;;;;;30.30;75.40;;;;;;5056631;28;19924;-72
2022/09/04 12:37:55;;;;;;;;;;;30.50;74.40;;;;;;5070696;28;19928;-69
2022/09/04 12:40:30;;;;;;;;;;;30.50;75.00;;;;;;5071496;28;19921;-71
2022/09/04 12:43:15;;;;;;;;;;;30.70;74.80;;;;;;5053151;28;19932;-73
2022/09/04 12:45:49;;;;;;;;;;;30.70;74.60;;;;;;5054776;28;19920;-71
2022/09/04 12:48:16;;;;;;;;;;;30.50;74.90;;;;;;5054914;28;19921;-72
2022/09/04 12:50:55;;;;;;;;;;;30.50;74.30;;;;;;5070891;28;19974;-74
2022/09/04 12:53:44;;;;;;;;;;;30.20;75.30;;;;;;5055420;28;19970;-71
2022/09/04 12:56:11;;;;;;;;;;;29.90;75.20;;;;;;5071799;28;19925;-72
2022/09/04 12:58:58;;;;;;;;;;;29.90;76.20;;;;;;5072287;28;19921;-71
2022/09/04 13:01:49;;;;;;;;;;;29.90;75.60;;;;;;5071766;28;19958;-73
2022/09/04 13:04:25;;;;;;;;;;;29.70;75.70;;;;;;5023300;28;19964;-73
2022/09/04 13:06:52;;;;;;;;;;;29.80;76.00;;;;;;5055800;28;19974;-73
2022/09/04 13:09:27;;;;;;;;;;;29.60;76.00;;;;;;5034566;28;20307;-73
2022/09/04 13:11:56;;;;;;;;;;;29.50;75.80;;;;;;5051274;28;19920;-73
2022/09/04 13:14:21;;;;;;;;;;;29.60;76.00;;;;;;5046881;28;19955;-73
2022/09/04 13:17:07;;;;;;;;;;;29.30;76.40;;;;;;5048335;28;20378;-71
2022/09/04 13:19:51;;;;;;;;;;;29.30;76.50;;;;;;5053458;28;19920;-72
2022/09/04 13:22:32;;;;;;;;;;;29.20;77.10;;;;;;5038046;28;19925;-71
2022/09/04 13:25:12;;;;;;;;;;;29.30;76.90;;;;;;5033635;28;20015;-70
2022/09/04 13:27:43;;;;;;;;;;;29.40;76.30;;;;;;5035079;28;20002;-70
2022/09/04 13:30:17;;;;;;;;;;;29.30;76.40;;;;;;5034365;28;19923;-71
2022/09/04 13:32:58;;;;;;;;;;;29.40;76.10;;;;;;5051906;28;20329;-70
2022/09/04 13:35:24;;;;;;;;;;;29.40;76.10;;;;;;5055771;28;19920;-70
2022/09/04 13:37:53;;;;;;;;;;;29.30;77.00;;;;;;5072501;28;19920;-70
2022/09/04 13:40:21;;;;;;;;;;;29.30;77.70;;;;;;5072278;28;19954;-70
2022/09/04 13:43:04;;;;;;;;;;;29.40;77.10;;;;;;5073051;28;20011;-71
2022/09/04 13:45:38;;;;;;;;;;;29.20;76.40;;;;;;5071531;28;19920;-71
2022/09/04 13:48:10;;;;;;;;;;;29.30;76.20;;;;;;5072196;28;20264;-71
2022/09/04 13:50:48;;;;;;;;;;;29.20;76.20;;;;;;5052412;28;19952;-70
2022/09/04 13:53:24;;;;;;;;;;;29.30;77.60;;;;;;5071922;28;19947;-71
2022/09/04 13:55:57;;;;;;;;;;;29.60;76.90;;;;;;5054106;28;19924;-70
2022/09/04 13:58:28;;;;;;;;;;;29.70;76.30;;;;;;5058312;28;19955;-70
2022/09/04 14:00:56;;;;;;;;;;;29.50;77.10;;;;;;5074963;28;19920;-71
2022/09/04 14:03:30;;;;;;;;;;;29.50;76.90;;;;;;5056494;28;19921;-72
2022/09/04 14:05:56;;;;;;;;;;;29.50;76.50;;;;;;5063841;28;19920;-70
2022/09/04 14:08:22;;;;;;;;;;;29.50;76.70;;;;;;5094487;28;19920;-70
2022/09/04 14:11:06;;;;;;;;;;;29.30;76.20;;;;;;5096338;28;19924;-71
2022/09/04 14:13:41;;;;;;;;;;;29.20;76.70;;;;;;5077407;28;20022;-70
2022/09/04 14:16:08;;;;;;;;;;;29.10;76.70;;;;;;5096033;28;19993;-71
2022/09/04 14:18:45;;;;;;;;;;;29.20;77.10;;;;;;5078029;28;19924;-71
2022/09/04 14:21:40;;;;;;;;;;;29.40;77.10;;;;;;5074504;28;19970;-71
2022/09/04 14:24:21;;;;;;;;;;;29.40;76.60;;;;;;5063428;28;20171;-72
2022/09/04 14:26:50;;;;;;;;;;;29.60;76.80;;;;;;5077403;28;19977;-71
2022/09/04 14:29:34;;;;;;;;;;;29.40;78.20;;;;;;5077348;28;19920;-70
2022/09/04 14:32:21;;;;;;;;;;;29.10;76.30;;;;;;5077910;28;19920;-71
2022/09/04 14:34:48;;;;;;;;;;;29.00;76.80;;;;;;5083981;28;19932;-70
2022/09/04 14:37:34;;;;;;;;;;;28.80;76.80;;;;;;5058469;28;19921;-70
2022/09/04 14:40:03;;;;;;;;;;;29.00;77.60;;;;;;5057295;28;19924;-70
2022/09/04 14:42:29;;;;;;;;;;;29.10;77.00;;;;;;5057033;28;19916;-71
2022/09/04 14:45:12;;;;;;;;;;;29.20;77.30;;;;;;5057535;28;19927;-69
2022/09/04 14:47:43;;;;;;;;;;;29.30;78.30;;;;;;5075105;28;19916;-71
2022/09/04 14:50:13;;;;;;;;;;;29.40;77.10;;;;;;5056110;28;19966;-71
2022/09/04 14:52:39;;;;;;;;;;;29.50;75.80;;;;;;5058148;28;19970;-71
2022/09/04 14:55:05;;;;;;;;;;;29.40;76.30;;;;;;5075112;28;19924;-69
2022/09/04 14:57:38;;;;;;;;;;;29.50;77.50;;;;;;5056532;28;19920;-70
2022/09/04 15:00:07;;;;;;;;;;;29.60;76.80;;;;;;5074864;28;19920;-69
2022/09/04 15:02:36;;;;;;;;;;;29.50;76.70;;;;;;5056772;28;19920;-72
2022/09/04 15:05:13;;;;;;;;;;;29.30;77.80;;;;;;5056502;28;19978;-71
2022/09/04 15:07:41;;;;;;;;;;;29.20;77.00;;;;;;5054426;28;20395;-70
2022/09/04 15:10:15;;;;;;;;;;;29.00;76.70;;;;;;5036079;28;19971;-75